Time;durP1;ratioP1;P1;durP2;ratioP2;P2;SDS_P1;SDS_P2;PMS_P1;PMS_P2;Temp;Humidity;BMP_temperature;BMP_pressure;BME280_temperature;BME280_humidity;BME280_pressure;Samples;Min_cycle;Max_cycle;Signal;HPM_P1;HPM_P2
2023/10/22 00:01:27;;;;;;;3.37;1.40;;;14.70;99.90;;;;;;5082308;28;20454;-80
2023/10/22 00:03:54;;;;;;;4.80;1.30;;;14.70;99.90;;;;;;5080855;28;20484;-80
2023/10/22 00:06:20;;;;;;;4.37;1.43;;;14.70;99.90;;;;;;5078762;28;20485;-81
2023/10/22 00:08:48;;;;;;;5.23;1.30;;;14.60;99.90;;;;;;5081707;28;20475;-80
2023/10/22 00:11:15;;;;;;;5.80;1.20;;;14.60;99.90;;;;;;5079868;28;20477;-79
2023/10/22 00:13:42;;;;;;;3.93;0.80;;;14.70;99.90;;;;;;5079342;28;20488;-81
2023/10/22 00:16:09;;;;;;;4.60;1.40;;;14.70;99.90;;;;;;5076430;28;20497;-80
2023/10/22 00:18:35;;;;;;;7.23;1.23;;;14.70;99.90;;;;;;5091483;28;20975;-80
2023/10/22 00:21:07;;;;;;;5.40;1.00;;;14.70;99.90;;;;;;5074737;28;20806;-80
2023/10/22 00:23:34;;;;;;;6.60;0.97;;;14.70;99.90;;;;;;5084968;28;20512;-81
2023/10/22 00:26:03;;;;;;;4.93;1.10;;;14.80;99.90;;;;;;5083676;28;20500;-82
2023/10/22 00:28:29;;;;;;;2.23;1.03;;;14.70;99.90;;;;;;5076742;28;20462;-81
2023/10/22 00:30:56;;;;;;;3.20;0.90;;;14.70;99.90;;;;;;5084966;28;20466;-82
2023/10/22 00:33:23;;;;;;;2.40;1.03;;;14.70;99.90;;;;;;5082139;28;20469;-81
2023/10/22 00:35:55;;;;;;;3.80;1.00;;;14.80;99.90;;;;;;5095514;28;20458;-82
2023/10/22 00:38:22;;;;;;;7.77;1.23;;;14.80;99.90;;;;;;5094220;28;20449;-80
2023/10/22 00:40:49;;;;;;;3.97;1.30;;;14.70;99.90;;;;;;5092108;28;20459;-80
2023/10/22 00:43:17;;;;;;;4.97;1.10;;;14.70;99.90;;;;;;5091009;28;20843;-81
2023/10/22 00:45:46;;;;;;;3.37;1.30;;;14.70;99.90;;;;;;5083626;28;20668;-80
2023/10/22 00:48:13;;;;;;;2.17;0.83;;;14.70;99.90;;;;;;5086908;28;20468;-80
2023/10/22 00:50:40;;;;;;;4.00;1.07;;;14.70;99.90;;;;;;5087057;28;20464;-79
2023/10/22 00:53:07;;;;;;;2.33;0.80;;;14.70;99.90;;;;;;5081390;28;20478;-80
2023/10/22 00:55:37;;;;;;;4.23;1.17;;;14.70;99.90;;;;;;5082286;28;20480;-82
2023/10/22 00:58:05;;;;;;;3.67;0.90;;;14.80;99.90;;;;;;5079773;28;20457;-82
2023/10/22 01:00:33;;;;;;;2.17;0.80;;;14.60;99.90;;;;;;5083156;28;20481;-83
2023/10/22 01:03:01;;;;;;;2.40;0.90;;;14.80;99.90;;;;;;5083509;28;20472;-80
2023/10/22 01:05:28;;;;;;;3.90;1.10;;;14.70;99.90;;;;;;5084902;28;20519;-80
2023/10/22 01:07:55;;;;;;;5.00;1.20;;;14.70;99.90;;;;;;5087076;28;20486;-81
2023/10/22 01:10:22;;;;;;;5.40;1.83;;;14.60;99.90;;;;;;5085027;28;20446;-80
2023/10/22 01:12:49;;;;;;;5.07;1.80;;;14.60;99.90;;;;;;5084945;28;20579;-80
2023/10/22 01:15:16;;;;;;;2.73;1.23;;;14.60;99.90;;;;;;5082050;28;20457;-81
2023/10/22 01:17:44;;;;;;;4.20;1.00;;;14.60;99.90;;;;;;5084406;28;20556;-81
2023/10/22 01:20:11;;;;;;;4.73;1.73;;;14.70;99.90;;;;;;5083215;28;20453;-81
2023/10/22 01:22:39;;;;;;;3.77;0.83;;;14.70;99.90;;;;;;5084574;28;20482;-81
2023/10/22 01:25:08;;;;;;;3.60;0.80;;;14.70;99.90;;;;;;5075655;28;20471;-81
2023/10/22 01:27:39;;;;;;;2.70;0.80;;;14.60;99.90;;;;;;5079352;28;20530;-78
2023/10/22 01:30:07;;;;;;;3.93;0.90;;;14.50;99.90;;;;;;5083243;28;20443;-82
2023/10/22 01:32:34;;;;;;;2.33;1.10;;;14.50;99.90;;;;;;5082819;28;20563;-81
2023/10/22 01:35:01;;;;;;;4.10;2.43;;;14.50;99.90;;;;;;5087135;28;20450;-82
2023/10/22 01:37:28;;;;;;;5.20;1.27;;;14.60;99.90;;;;;;5077057;28;20474;-81
2023/10/22 01:39:57;;;;;;;1.97;0.80;;;14.70;99.90;;;;;;5082997;28;20908;-80
2023/10/22 01:42:25;;;;;;;2.10;0.93;;;14.60;99.90;;;;;;5083236;28;20477;-80
2023/10/22 01:44:52;;;;;;;4.73;1.00;;;14.60;99.90;;;;;;5085753;28;20466;-81
2023/10/22 01:47:19;;;;;;;3.60;1.00;;;14.60;99.90;;;;;;5094119;28;20537;-79
2023/10/22 01:49:46;;;;;;;3.40;0.80;;;14.60;99.90;;;;;;5077587;28;20464;-81
2023/10/22 01:52:14;;;;;;;3.90;1.00;;;14.60;99.90;;;;;;5083028;28;20469;-81
2023/10/22 01:54:41;;;;;;;3.00;0.80;;;14.60;99.90;;;;;;5089172;28;20862;-80
2023/10/22 01:57:08;;;;;;;4.97;0.80;;;14.60;99.90;;;;;;5092505;28;20454;-81
2023/10/22 01:59:37;;;;;;;3.73;0.83;;;14.60;99.90;;;;;;5077040;28;20470;-81
2023/10/22 02:02:04;;;;;;;2.90;0.90;;;14.60;99.90;;;;;;5069008;28;20919;-81
2023/10/22 02:04:31;;;;;;;3.70;1.10;;;14.60;99.90;;;;;;5091093;28;20456;-81
2023/10/22 02:06:58;;;;;;;5.23;1.00;;;14.60;99.90;;;;;;5078272;28;21004;-81
2023/10/22 02:09:25;;;;;;;2.70;0.80;;;14.50;99.90;;;;;;5076464;28;20477;-80
2023/10/22 02:11:52;;;;;;;2.30;1.00;;;14.50;99.90;;;;;;5075388;28;20466;-80
2023/10/22 02:14:19;;;;;;;4.90;1.00;;;14.50;99.90;;;;;;5083712;28;20450;-80
2023/10/22 02:16:47;;;;;;;4.90;1.00;;;14.60;99.90;;;;;;5078488;28;20451;-81
2023/10/22 02:19:14;;;;;;;2.50;1.00;;;14.60;99.90;;;;;;5079744;28;20455;-80
2023/10/22 02:21:41;;;;;;;3.53;1.33;;;14.60;99.90;;;;;;5081151;28;20915;-78
2023/10/22 02:24:09;;;;;;;3.80;0.97;;;14.60;99.90;;;;;;5078761;28;20515;-80
2023/10/22 02:26:35;;;;;;;3.57;0.93;;;14.50;99.90;;;;;;5078156;28;20482;-80
2023/10/22 02:29:03;;;;;;;4.50;0.90;;;14.40;99.90;;;;;;5080715;28;20967;-81
2023/10/22 02:31:29;;;;;;;2.33;0.90;;;14.50;99.90;;;;;;5082533;28;20459;-80
2023/10/22 02:34:03;;;;;;;3.53;1.10;;;14.50;99.90;;;;;;5093965;28;20601;-80
2023/10/22 02:36:30;;;;;;;2.47;0.70;;;14.50;99.90;;;;;;5083240;28;20450;-80
2023/10/22 02:38:57;;;;;;;2.80;0.97;;;14.50;99.90;;;;;;5085153;28;20454;-81
2023/10/22 02:41:24;;;;;;;2.33;0.70;;;14.40;99.90;;;;;;5087817;28;20458;-81
2023/10/22 02:43:51;;;;;;;2.03;0.70;;;14.40;99.90;;;;;;5080555;28;20476;-82
2023/10/22 02:46:18;;;;;;;1.90;0.80;;;14.30;99.90;;;;;;5085480;28;20482;-80
2023/10/22 02:48:44;;;;;;;2.63;1.00;;;14.40;99.90;;;;;;5075829;28;20461;-80
2023/10/22 02:51:13;;;;;;;1.87;0.80;;;14.40;99.90;;;;;;5088806;28;20543;-80
2023/10/22 02:53:39;;;;;;;2.20;0.70;;;14.30;99.90;;;;;;5085271;28;20474;-82
2023/10/22 02:56:09;;;;;;;3.60;0.93;;;14.40;99.90;;;;;;5079981;28;20466;-82
2023/10/22 02:58:38;;;;;;;3.20;0.90;;;14.40;99.90;;;;;;5082627;28;20950;-82
2023/10/22 03:01:05;;;;;;;1.60;0.80;;;14.30;99.90;;;;;;5092901;28;20463;-79
2023/10/22 03:03:38;;;;;;;1.80;0.70;;;14.20;99.90;;;;;;5087718;28;20484;-82
2023/10/22 03:06:05;;;;;;;4.80;1.00;;;14.30;99.90;;;;;;5092112;28;20474;-82
2023/10/22 03:08:34;;;;;;;2.50;0.80;;;14.20;99.90;;;;;;5087029;28;20488;-81
2023/10/22 03:11:00;;;;;;;1.97;0.80;;;14.20;99.90;;;;;;5078612;28;20918;-82
2023/10/22 03:13:27;;;;;;;3.60;0.80;;;14.20;99.90;;;;;;5089958;28;20500;-81
2023/10/22 03:15:54;;;;;;;2.77;1.03;;;14.00;99.90;;;;;;5078911;28;20452;-80
2023/10/22 03:18:22;;;;;;;6.30;1.03;;;14.00;99.90;;;;;;5084620;28;20459;-81
2023/10/22 03:20:49;;;;;;;3.70;1.10;;;14.00;99.90;;;;;;5080785;28;20454;-82
2023/10/22 03:23:15;;;;;;;3.60;1.00;;;14.00;99.90;;;;;;5085053;28;20917;-81
2023/10/22 03:25:45;;;;;;;2.03;0.60;;;14.00;99.90;;;;;;5081369;28;20451;-79
2023/10/22 03:28:11;;;;;;;1.90;0.60;;;13.90;99.90;;;;;;5086203;28;20460;-79
2023/10/22 03:30:38;;;;;;;4.27;0.93;;;13.80;99.90;;;;;;5087314;28;20464;-80
2023/10/22 03:33:05;;;;;;;4.60;1.30;;;13.90;99.90;;;;;;5085121;28;20480;-81
2023/10/22 03:35:35;;;;;;;2.63;0.80;;;13.90;99.90;;;;;;5078775;28;20517;-81
2023/10/22 03:38:02;;;;;;;1.70;0.60;;;13.90;99.90;;;;;;5095228;28;20444;-83
2023/10/22 03:40:29;;;;;;;2.90;0.90;;;13.90;99.90;;;;;;5090675;28;20464;-80
2023/10/22 03:42:57;;;;;;;1.90;0.70;;;13.90;99.90;;;;;;5086096;28;20485;-80
2023/10/22 03:45:24;;;;;;;3.17;0.80;;;13.90;99.90;;;;;;5078645;28;20461;-80
2023/10/22 03:47:51;;;;;;;2.93;0.80;;;13.80;99.90;;;;;;5087790;28;20494;-82
2023/10/22 03:50:17;;;;;;;5.00;1.00;;;13.80;99.90;;;;;;5091032;28;20456;-80
2023/10/22 03:52:44;;;;;;;2.90;0.83;;;13.80;99.90;;;;;;5084502;28;20852;-81
2023/10/22 03:55:11;;;;;;;2.47;0.60;;;13.70;99.90;;;;;;5092962;28;20814;-80
2023/10/22 03:57:38;;;;;;;2.23;0.80;;;13.70;99.90;;;;;;5087258;28;20456;-80
2023/10/22 04:00:07;;;;;;;3.70;0.87;;;13.80;99.90;;;;;;5090077;28;20550;-80
2023/10/22 04:02:34;;;;;;;2.00;0.70;;;13.60;99.90;;;;;;5081184;28;21006;-79
2023/10/22 04:05:01;;;;;;;2.23;0.73;;;13.60;99.90;;;;;;5080352;28;20449;-82
2023/10/22 04:07:30;;;;;;;2.33;0.80;;;13.60;99.90;;;;;;5088101;28;20513;-81
2023/10/22 04:09:57;;;;;;;1.73;0.70;;;13.70;99.90;;;;;;5089162;28;21011;-81
2023/10/22 04:12:24;;;;;;;2.57;1.00;;;13.70;99.90;;;;;;5093461;28;21001;-81
2023/10/22 04:14:51;;;;;;;2.07;0.83;;;13.60;99.90;;;;;;5095794;28;20461;-80
2023/10/22 04:17:19;;;;;;;2.90;0.80;;;13.70;99.90;;;;;;5087176;28;20456;-79
2023/10/22 04:19:46;;;;;;;3.20;1.00;;;13.70;99.90;;;;;;5086194;28;20451;-80
2023/10/22 04:22:12;;;;;;;1.60;0.70;;;13.80;99.90;;;;;;5084072;28;20476;-80
2023/10/22 04:24:40;;;;;;;2.30;0.80;;;13.60;99.90;;;;;;5088909;28;21143;-82
2023/10/22 04:27:07;;;;;;;2.33;0.97;;;13.70;99.90;;;;;;5094623;28;20487;-81
2023/10/22 04:29:34;;;;;;;2.63;0.80;;;13.60;99.90;;;;;;5082263;28;20518;-80
2023/10/22 04:32:02;;;;;;;3.30;1.10;;;13.70;99.90;;;;;;5088727;28;20829;-83
2023/10/22 04:34:32;;;;;;;3.30;0.70;;;13.60;99.90;;;;;;5089220;28;20470;-84
2023/10/22 04:36:59;;;;;;;1.80;0.80;;;13.60;99.90;;;;;;5093129;28;20993;-80
2023/10/22 04:39:26;;;;;;;3.50;1.37;;;13.70;99.90;;;;;;5094631;28;20468;-83
2023/10/22 04:41:53;;;;;;;2.23;0.80;;;13.60;99.90;;;;;;5074210;28;20461;-81
2023/10/22 04:44:20;;;;;;;1.83;0.70;;;13.70;99.90;;;;;;5085745;28;20480;-81
2023/10/22 04:46:46;;;;;;;1.63;0.80;;;13.70;99.90;;;;;;5092035;28;20921;-82
2023/10/22 04:49:13;;;;;;;2.80;0.90;;;13.70;99.90;;;;;;5089378;28;20478;-82
2023/10/22 04:51:41;;;;;;;4.97;0.83;;;13.70;99.90;;;;;;5077576;28;20459;-81
2023/10/22 04:54:08;;;;;;;2.43;0.80;;;13.70;99.90;;;;;;5084591;28;20533;-81
2023/10/22 04:56:35;;;;;;;1.90;0.77;;;13.80;99.90;;;;;;5082193;28;20452;-79
2023/10/22 04:59:02;;;;;;;2.53;1.10;;;13.70;99.90;;;;;;5086980;28;20969;-82
2023/10/22 05:01:29;;;;;;;4.53;0.90;;;13.70;99.90;;;;;;5093553;28;20451;-81
2023/10/22 05:03:56;;;;;;;1.70;0.70;;;13.70;99.90;;;;;;5088982;28;20470;-81
2023/10/22 05:06:22;;;;;;;2.33;0.70;;;13.60;99.90;;;;;;5092121;28;20462;-80
2023/10/22 05:08:51;;;;;;;1.93;0.60;;;13.70;99.90;;;;;;5083884;28;20472;-79
2023/10/22 05:11:18;;;;;;;1.40;0.70;;;13.80;99.90;;;;;;5075025;28;20904;-81
2023/10/22 05:13:45;;;;;;;1.70;0.70;;;13.80;99.90;;;;;;5074952;28;20479;-82
2023/10/22 05:16:12;;;;;;;1.50;0.77;;;13.80;99.90;;;;;;5077840;28;20458;-83
2023/10/22 05:18:39;;;;;;;3.00;0.70;;;13.80;99.90;;;;;;5077654;28;20472;-81
2023/10/22 05:21:07;;;;;;;1.30;0.60;;;13.80;99.90;;;;;;5082245;28;20471;-81
2023/10/22 05:23:34;;;;;;;1.70;0.80;;;13.80;99.90;;;;;;5073892;28;20482;-80
2023/10/22 05:26:07;;;;;;;2.03;1.17;;;13.80;99.90;;;;;;5085889;28;20458;-81
2023/10/22 05:28:34;;;;;;;1.50;0.70;;;13.90;99.90;;;;;;5089415;28;20515;-79
2023/10/22 05:31:01;;;;;;;1.60;0.70;;;13.90;99.90;;;;;;5085505;28;20463;-81
2023/10/22 05:33:28;;;;;;;1.53;0.60;;;13.90;99.90;;;;;;5088865;28;20485;-79
2023/10/22 05:35:55;;;;;;;1.40;0.60;;;14.00;99.90;;;;;;5085459;28;20451;-81
2023/10/22 05:38:22;;;;;;;2.50;0.70;;;14.00;99.90;;;;;;5089724;28;20545;-81
2023/10/22 05:40:49;;;;;;;1.87;0.70;;;14.00;99.90;;;;;;5087905;28;20463;-81
2023/10/22 05:43:17;;;;;;;3.27;0.70;;;13.80;99.90;;;;;;5095032;28;20470;-81
2023/10/22 05:45:43;;;;;;;2.17;0.60;;;13.80;99.90;;;;;;5084833;28;20456;-78
2023/10/22 05:48:10;;;;;;;1.80;0.90;;;13.80;99.90;;;;;;5087749;28;20490;-80
2023/10/22 05:50:39;;;;;;;1.30;0.60;;;13.80;99.90;;;;;;5082284;28;20471;-81
2023/10/22 05:53:05;;;;;;;2.53;0.63;;;13.80;99.90;;;;;;5080244;28;20466;-81
2023/10/22 05:55:32;;;;;;;2.43;0.60;;;13.80;99.90;;;;;;5078760;28;20536;-81
2023/10/22 05:57:59;;;;;;;1.30;0.50;;;13.90;99.90;;;;;;5071768;28;20470;-79
2023/10/22 06:00:27;;;;;;;3.83;0.70;;;13.80;99.90;;;;;;5079121;28;20467;-81
2023/10/22 06:02:54;;;;;;;1.33;0.60;;;13.80;99.90;;;;;;5072157;28;20466;-81
2023/10/22 06:05:21;;;;;;;1.50;0.67;;;13.90;99.90;;;;;;5088242;28;20450;-81
2023/10/22 06:07:48;;;;;;;1.60;0.70;;;13.80;99.90;;;;;;5076456;28;20948;-80
2023/10/22 06:10:14;;;;;;;1.80;0.70;;;13.80;99.90;;;;;;5087794;28;20479;-81
2023/10/22 06:12:41;;;;;;;1.40;0.70;;;13.80;99.90;;;;;;5087985;28;20482;-81
2023/10/22 06:15:09;;;;;;;2.33;0.70;;;13.70;99.90;;;;;;5083006;28;20464;-82
2023/10/22 06:17:37;;;;;;;1.70;0.90;;;13.80;99.90;;;;;;5091529;28;20452;-79
2023/10/22 06:20:05;;;;;;;1.80;0.70;;;13.80;99.90;;;;;;5087974;28;20457;-80
2023/10/22 06:22:32;;;;;;;1.50;0.57;;;13.80;99.90;;;;;;5086056;28;20488;-81
2023/10/22 06:24:58;;;;;;;1.40;0.60;;;13.80;99.90;;;;;;5076440;28;20825;-82
2023/10/22 06:27:25;;;;;;;1.50;0.70;;;13.70;99.90;;;;;;5076498;28;20540;-80
2023/10/22 06:29:53;;;;;;;1.37;0.60;;;13.70;99.90;;;;;;5083007;28;20847;-81
2023/10/22 06:32:20;;;;;;;2.43;0.70;;;13.60;99.90;;;;;;5080716;28;20466;-82
2023/10/22 06:34:48;;;;;;;1.77;0.60;;;13.50;99.90;;;;;;5086765;28;20836;-79
2023/10/22 06:37:15;;;;;;;4.03;0.67;;;13.60;99.90;;;;;;5087272;28;20476;-82
2023/10/22 06:39:42;;;;;;;1.40;0.67;;;13.60;99.90;;;;;;5085563;28;20565;-81
2023/10/22 06:42:09;;;;;;;1.60;0.60;;;13.60;99.90;;;;;;5081719;28;20564;-79
2023/10/22 06:44:36;;;;;;;1.40;0.60;;;13.70;99.90;;;;;;5083331;28;20458;-82
2023/10/22 06:47:04;;;;;;;2.00;0.70;;;13.70;99.90;;;;;;5085707;28;20454;-79
2023/10/22 06:49:31;;;;;;;2.87;0.80;;;13.70;99.90;;;;;;5088338;28;20460;-81
2023/10/22 06:51:59;;;;;;;1.60;0.70;;;13.60;99.90;;;;;;5096471;28;20459;-82
2023/10/22 06:54:26;;;;;;;1.70;0.60;;;13.60;99.90;;;;;;5088146;28;20455;-83
2023/10/22 06:56:52;;;;;;;2.10;0.80;;;13.60;99.90;;;;;;5078652;28;20449;-81
2023/10/22 06:59:19;;;;;;;1.40;0.60;;;13.60;99.90;;;;;;5082602;28;20834;-81
2023/10/22 07:01:46;;;;;;;1.80;0.60;;;13.70;99.90;;;;;;5085545;28;20480;-81
2023/10/22 07:04:13;;;;;;;3.63;0.70;;;13.70;99.90;;;;;;5089986;28;20462;-82
2023/10/22 07:06:40;;;;;;;1.63;0.70;;;13.80;99.90;;;;;;5088399;28;20452;-82
2023/10/22 07:09:09;;;;;;;2.17;0.97;;;13.70;99.90;;;;;;5095056;28;20478;-80
2023/10/22 07:11:37;;;;;;;2.20;0.80;;;13.80;99.90;;;;;;5087612;28;20461;-81
2023/10/22 07:14:04;;;;;;;1.70;1.00;;;13.90;99.90;;;;;;5088377;28;20479;-81
2023/10/22 07:16:30;;;;;;;1.50;0.70;;;13.80;99.90;;;;;;5089171;28;20486;-82
2023/10/22 07:18:57;;;;;;;1.63;0.77;;;13.70;99.90;;;;;;5088764;28;21049;-82
2023/10/22 07:21:24;;;;;;;1.70;0.70;;;13.80;99.90;;;;;;5087625;28;20454;-82
2023/10/22 07:23:51;;;;;;;2.40;0.70;;;13.70;99.90;;;;;;5080440;28;20518;-81
2023/10/22 07:26:19;;;;;;;2.30;0.90;;;13.70;99.90;;;;;;5095708;28;20448;-83
2023/10/22 07:28:47;;;;;;;1.77;0.80;;;13.80;99.90;;;;;;5094815;28;20493;-81
2023/10/22 07:31:17;;;;;;;1.93;0.73;;;13.90;99.90;;;;;;5092344;28;20459;-80
2023/10/22 07:33:44;;;;;;;1.50;0.70;;;13.90;99.90;;;;;;5085856;28;20487;-81
2023/10/22 07:36:11;;;;;;;1.70;0.70;;;13.90;99.90;;;;;;5081669;28;20459;-81
2023/10/22 07:38:40;;;;;;;2.37;0.80;;;14.00;99.90;;;;;;5090000;28;21003;-79
2023/10/22 07:41:13;;;;;;;1.70;0.80;;;13.90;99.90;;;;;;5095314;28;20463;-80
2023/10/22 07:43:41;;;;;;;1.70;0.80;;;14.00;99.90;;;;;;5094416;28;20486;-82
2023/10/22 07:46:10;;;;;;;1.43;0.70;;;14.00;99.90;;;;;;5094354;28;20490;-82
2023/10/22 07:48:36;;;;;;;1.50;0.67;;;13.90;99.90;;;;;;5095892;28;20493;-81
2023/10/22 07:51:11;;;;;;;2.07;0.80;;;14.00;99.90;;;;;;5092100;28;20461;-82
2023/10/22 07:53:38;;;;;;;1.70;0.70;;;14.00;99.90;;;;;;5088853;28;20476;-82
2023/10/22 07:56:05;;;;;;;1.70;0.60;;;14.00;99.90;;;;;;5078544;28;20444;-80
2023/10/22 07:58:32;;;;;;;2.30;1.07;;;14.00;99.90;;;;;;5078817;28;20457;-81
2023/10/22 08:01:00;;;;;;;1.50;0.70;;;14.00;99.90;;;;;;5092116;28;20452;-82
2023/10/22 08:03:29;;;;;;;1.57;0.70;;;13.90;99.90;;;;;;5077531;28;20532;-82
2023/10/22 08:05:56;;;;;;;1.80;0.70;;;14.00;99.90;;;;;;5074465;28;20511;-83
2023/10/22 08:08:23;;;;;;;1.50;0.70;;;13.80;99.90;;;;;;5088229;28;20567;-80
2023/10/22 08:10:49;;;;;;;1.80;0.80;;;14.00;99.90;;;;;;5087321;28;20457;-82
2023/10/22 08:13:16;;;;;;;2.73;0.70;;;14.00;99.90;;;;;;5079997;28;20473;-82
2023/10/22 08:15:43;;;;;;;1.90;0.80;;;14.00;99.90;;;;;;5080513;28;20451;-82
2023/10/22 08:18:11;;;;;;;1.73;0.80;;;14.10;99.90;;;;;;5079899;28;20468;-82
2023/10/22 08:20:38;;;;;;;2.83;0.80;;;14.10;99.90;;;;;;5090767;28;20522;-81
2023/10/22 08:23:05;;;;;;;1.63;0.80;;;13.90;99.90;;;;;;5080920;28;20572;-83
2023/10/22 08:25:32;;;;;;;1.50;0.80;;;13.90;99.90;;;;;;5088715;28;20463;-83
2023/10/22 08:27:59;;;;;;;2.63;0.73;;;14.00;99.90;;;;;;5085628;28;20488;-82
2023/10/22 08:30:25;;;;;;;4.03;1.07;;;14.10;99.90;;;;;;5088199;28;20833;-81
2023/10/22 08:32:52;;;;;;;3.30;0.80;;;14.10;99.90;;;;;;5073358;28;20471;-81
2023/10/22 08:35:21;;;;;;;2.27;0.90;;;14.00;99.90;;;;;;5075348;28;20464;-81
2023/10/22 08:37:48;;;;;;;1.77;0.77;;;14.10;99.90;;;;;;5078072;28;20914;-81
2023/10/22 08:40:15;;;;;;;2.20;0.70;;;14.20;99.90;;;;;;5074705;28;20450;-81
2023/10/22 08:42:42;;;;;;;2.20;0.90;;;14.30;99.90;;;;;;5078880;28;20473;-81
2023/10/22 08:45:10;;;;;;;1.70;0.73;;;14.30;99.90;;;;;;5074999;28;20514;-81
2023/10/22 08:47:37;;;;;;;2.10;0.80;;;14.20;99.90;;;;;;5083394;28;20828;-79
2023/10/22 08:50:04;;;;;;;1.60;0.80;;;14.30;99.90;;;;;;5088669;28;20451;-82
2023/10/22 08:52:33;;;;;;;3.10;1.10;;;14.30;99.90;;;;;;5086636;28;20472;-83
2023/10/22 08:55:00;;;;;;;2.87;0.70;;;14.30;99.90;;;;;;5083369;28;20693;-81
2023/10/22 08:57:29;;;;;;;1.70;0.70;;;14.30;99.90;;;;;;5088344;28;20466;-83
2023/10/22 08:59:55;;;;;;;1.80;1.00;;;14.40;99.90;;;;;;5078951;28;20530;-83
2023/10/22 09:02:26;;;;;;;1.90;0.90;;;14.50;99.90;;;;;;5094500;28;20488;-81
2023/10/22 09:04:53;;;;;;;2.80;1.10;;;14.40;99.90;;;;;;5100139;28;20531;-83
2023/10/22 09:07:40;;;;;;;3.50;1.60;;;14.40;99.90;;;;;;5092642;28;20875;-83
2023/10/22 09:10:24;;;;;;;2.17;0.90;;;14.50;99.90;;;;;;5084421;28;20460;-81
2023/10/22 09:12:50;;;;;;;1.77;0.60;;;14.60;99.90;;;;;;5095737;28;20472;-83
2023/10/22 09:15:17;;;;;;;3.50;0.97;;;14.80;99.90;;;;;;5095612;28;20449;-83
2023/10/22 09:17:45;;;;;;;2.43;0.90;;;14.80;99.90;;;;;;5086511;28;20490;-82
2023/10/22 09:20:22;;;;;;;5.73;0.90;;;14.80;99.90;;;;;;5088518;28;20962;-82
2023/10/22 09:22:49;;;;;;;2.33;0.80;;;14.90;99.90;;;;;;5085121;28;20470;-83
2023/10/22 09:25:18;;;;;;;1.93;1.00;;;14.90;99.90;;;;;;5078148;28;20808;-82
2023/10/22 09:27:46;;;;;;;2.13;0.80;;;15.00;99.90;;;;;;5089776;28;20912;-81
2023/10/22 09:30:13;;;;;;;3.27;0.80;;;15.10;99.90;;;;;;5088718;28;20823;-81
2023/10/22 09:32:47;;;;;;;1.87;0.93;;;15.00;99.90;;;;;;5089333;28;20493;-81
2023/10/22 09:35:14;;;;;;;2.63;1.00;;;15.10;99.90;;;;;;5091922;28;20476;-81
2023/10/22 09:37:51;;;;;;;1.73;0.80;;;15.20;99.90;;;;;;5097001;28;20948;-82
2023/10/22 09:40:23;;;;;;;1.60;0.70;;;15.20;99.90;;;;;;5081726;28;20957;-82
2023/10/22 09:42:50;;;;;;;1.90;0.80;;;15.40;99.90;;;;;;5084208;28;20569;-80
2023/10/22 09:45:19;;;;;;;2.43;1.00;;;15.30;99.90;;;;;;5090379;28;21025;-82
2023/10/22 09:47:48;;;;;;;2.77;1.00;;;15.50;99.90;;;;;;5085438;28;21010;-81
2023/10/22 09:50:18;;;;;;;1.60;0.80;;;15.50;99.90;;;;;;5077939;28;20534;-81
2023/10/22 09:52:45;;;;;;;2.80;0.90;;;15.60;99.90;;;;;;5090625;28;20533;-80
2023/10/22 09:55:14;;;;;;;1.60;0.70;;;15.70;99.90;;;;;;5081512;28;20451;-81
2023/10/22 09:57:43;;;;;;;2.13;0.80;;;15.70;99.90;;;;;;5081741;28;20467;-79
2023/10/22 10:00:12;;;;;;;2.43;0.80;;;15.80;99.90;;;;;;5068673;28;20450;-81
2023/10/22 10:02:40;;;;;;;2.17;0.90;;;15.80;99.90;;;;;;5089209;28;20536;-81
2023/10/22 10:05:09;;;;;;;3.40;0.83;;;15.90;99.90;;;;;;5081724;28;20446;-80
2023/10/22 10:07:38;;;;;;;1.70;0.90;;;15.90;99.90;;;;;;5083490;28;20471;-78
2023/10/22 10:10:07;;;;;;;2.33;0.80;;;15.80;99.90;;;;;;5085765;28;20481;-81
2023/10/22 10:12:36;;;;;;;1.70;0.70;;;15.70;99.90;;;;;;5079118;28;20478;-81
2023/10/22 10:15:06;;;;;;;2.63;1.00;;;15.70;99.90;;;;;;5079484;28;20462;-80
2023/10/22 10:17:51;;;;;;;3.20;0.57;;;15.70;99.90;;;;;;5089731;28;20463;-80
2023/10/22 10:20:24;;;;;;;1.70;0.90;;;15.70;99.90;;;;;;5087452;28;20521;-81
2023/10/22 10:23:03;;;;;;;1.60;0.70;;;15.50;99.90;;;;;;5079428;28;20483;-79
2023/10/22 10:25:32;;;;;;;1.90;0.83;;;15.50;99.90;;;;;;5080638;28;20990;-82
2023/10/22 10:28:02;;;;;;;2.93;0.97;;;15.40;99.90;;;;;;5085451;28;20497;-81
2023/10/22 10:30:31;;;;;;;2.17;0.73;;;15.50;99.90;;;;;;5086340;28;20455;-80
2023/10/22 10:32:58;;;;;;;2.77;1.03;;;15.50;99.90;;;;;;5081084;28;20512;-80
2023/10/22 10:35:27;;;;;;;2.00;0.73;;;15.50;99.90;;;;;;5079416;28;20949;-81
2023/10/22 10:38:19;;;;;;;1.97;1.00;;;15.40;99.90;;;;;;5077691;28;20547;-82
2023/10/22 10:40:47;;;;;;;5.10;0.83;;;15.50;99.90;;;;;;5079255;28;20903;-80
2023/10/22 10:43:15;;;;;;;2.63;0.80;;;15.60;99.90;;;;;;5081112;28;21053;-82
2023/10/22 10:46:25;;;;;;;2.97;0.93;;;15.50;99.90;;;;;;5083474;28;20462;-81
2023/10/22 10:48:52;;;;;;;1.80;0.70;;;15.60;99.90;;;;;;5074868;28;20475;-81
2023/10/22 10:51:21;;;;;;;1.70;0.77;;;15.60;99.90;;;;;;5078214;28;20500;-82
2023/10/22 10:54:17;;;;;;;2.10;0.90;;;15.70;99.90;;;;;;5077395;28;20482;-81
2023/10/22 10:56:56;;;;;;;4.27;1.00;;;15.60;99.90;;;;;;5078818;28;20469;-82
2023/10/22 10:59:34;;;;;;;1.93;0.90;;;15.80;99.90;;;;;;5077277;28;20458;-81
2023/10/22 11:02:08;;;;;;;3.03;1.00;;;15.90;99.90;;;;;;5081438;28;20454;-82
2023/10/22 11:04:37;;;;;;;2.30;1.30;;;15.90;99.90;;;;;;5082287;28;20513;-81
2023/10/22 11:07:04;;;;;;;1.83;0.80;;;16.00;99.90;;;;;;5080358;28;20845;-78
2023/10/22 11:09:33;;;;;;;1.90;0.83;;;16.00;99.90;;;;;;5084203;28;20562;-80
2023/10/22 11:12:03;;;;;;;2.00;0.90;;;15.90;99.90;;;;;;5083657;28;20508;-81
2023/10/22 11:14:31;;;;;;;1.70;0.63;;;16.00;99.90;;;;;;5087718;28;20477;-81
2023/10/22 11:16:59;;;;;;;1.83;0.97;;;16.10;99.90;;;;;;5085836;28;20504;-82
2023/10/22 11:19:29;;;;;;;2.83;0.90;;;16.20;99.90;;;;;;5084506;28;21116;-81
2023/10/22 11:21:57;;;;;;;2.90;1.33;;;16.10;99.90;;;;;;5081986;28;20536;-83
2023/10/22 11:24:28;;;;;;;2.87;0.90;;;16.00;99.90;;;;;;5083793;28;21011;-80
2023/10/22 11:26:56;;;;;;;2.60;0.80;;;16.00;99.90;;;;;;5086948;28;21034;-80
2023/10/22 11:29:22;;;;;;;2.83;0.70;;;16.00;99.90;;;;;;5082612;28;20566;-80
2023/10/22 11:31:54;;;;;;;5.30;0.90;;;16.10;99.90;;;;;;5080742;28;20528;-83
2023/10/22 11:34:21;;;;;;;3.70;1.33;;;16.00;99.90;;;;;;5079792;28;20456;-82
2023/10/22 11:36:49;;;;;;;2.00;0.80;;;16.00;99.90;;;;;;5089860;28;20461;-80
2023/10/22 11:39:21;;;;;;;3.80;1.00;;;16.00;99.90;;;;;;5087346;28;20447;-80
2023/10/22 11:41:57;;;;;;;3.20;1.30;;;16.00;99.90;;;;;;5096883;28;20474;-78
2023/10/22 11:44:31;;;;;;;4.97;2.20;;;16.00;99.90;;;;;;5090135;28;20449;-80
2023/10/22 11:46:59;;;;;;;3.10;1.00;;;16.10;99.90;;;;;;5093563;28;20443;-79
2023/10/22 11:49:27;;;;;;;2.63;1.10;;;16.00;99.90;;;;;;5095567;28;20504;-80
2023/10/22 11:51:55;;;;;;;2.23;0.93;;;16.00;99.90;;;;;;5104474;28;20544;-80
2023/10/22 11:54:44;;;;;;;1.90;0.83;;;16.10;99.90;;;;;;5088902;28;20446;-79
2023/10/22 11:57:11;;;;;;;2.53;0.93;;;16.10;99.90;;;;;;5075163;28;20455;-77
2023/10/22 11:59:37;;;;;;;2.80;1.20;;;16.10;99.90;;;;;;5078241;28;20988;-80
2023/10/22 12:02:04;;;;;;;2.10;0.80;;;16.20;99.90;;;;;;5078312;28;20491;-79
2023/10/22 12:04:31;;;;;;;3.03;1.00;;;16.20;99.90;;;;;;5081566;28;20520;-79
2023/10/22 12:07:00;;;;;;;2.10;0.80;;;16.40;99.90;;;;;;5084130;28;20457;-81
2023/10/22 12:09:27;;;;;;;4.43;0.83;;;16.50;99.90;;;;;;5092627;28;20597;-80
2023/10/22 12:11:54;;;;;;;2.30;0.80;;;16.70;99.90;;;;;;5078574;28;20463;-80
2023/10/22 12:14:21;;;;;;;3.47;0.90;;;16.80;99.90;;;;;;5093310;28;20508;-81
2023/10/22 12:16:48;;;;;;;2.67;1.20;;;16.70;99.90;;;;;;5080556;28;20507;-81
2023/10/22 12:19:15;;;;;;;2.90;2.27;;;16.90;99.90;;;;;;5079470;28;20940;-81
2023/10/22 12:21:41;;;;;;;3.07;1.10;;;17.00;99.90;;;;;;5082331;28;20451;-81
2023/10/22 12:24:10;;;;;;;1.70;0.77;;;17.40;99.90;;;;;;5079344;28;20932;-81
2023/10/22 12:26:37;;;;;;;2.83;1.27;;;17.90;99.90;;;;;;5078050;28;20525;-81
2023/10/22 12:29:04;;;;;;;4.43;1.10;;;18.00;99.90;;;;;;5079543;28;20484;-81
2023/10/22 12:31:31;;;;;;;2.03;0.90;;;18.20;99.90;;;;;;5078889;28;20990;-80
2023/10/22 12:33:59;;;;;;;1.90;0.80;;;18.10;99.90;;;;;;5079585;28;20473;-80
2023/10/22 12:36:25;;;;;;;3.20;0.90;;;18.00;99.90;;;;;;5080336;28;20463;-80
2023/10/22 12:38:53;;;;;;;2.60;1.20;;;18.20;99.90;;;;;;5079980;28;20453;-80
2023/10/22 12:41:22;;;;;;;2.73;1.00;;;18.30;99.90;;;;;;5079397;28;20454;-80
2023/10/22 12:43:49;;;;;;;7.83;2.50;;;18.30;99.90;;;;;;5077257;28;20907;-79
2023/10/22 12:46:16;;;;;;;2.10;1.00;;;18.30;99.90;;;;;;5079961;28;20449;-79
2023/10/22 12:48:43;;;;;;;2.47;0.97;;;18.30;99.90;;;;;;5076919;28;20455;-79
2023/10/22 12:51:09;;;;;;;2.13;0.90;;;18.20;99.90;;;;;;5077972;28;20515;-78
2023/10/22 12:53:36;;;;;;;2.50;1.00;;;17.90;99.90;;;;;;5077846;28;21036;-79